sensor_id;sensor_type;location;lat;lon;timestamp;pressure;altitude;pressure_sealevel;temperature;humidity
64460;BME280;50828;53.756;21.140;2023-04-27T00:04:41;99698.76;;;1.74;62.11
64460;BME280;50828;53.756;21.140;2023-04-27T00:09:49;99697.71;;;1.75;61.91
64460;BME280;50828;53.756;21.140;2023-04-27T00:14:58;99698.40;;;1.75;61.95
64460;BME280;50828;53.756;21.140;2023-04-27T00:20:08;99697.54;;;1.75;61.68
64460;BME280;50828;53.756;21.140;2023-04-27T00:25:17;99697.38;;;1.74;61.52
64460;BME280;50828;53.756;21.140;2023-04-27T00:30:26;99703.27;;;1.73;61.56
64460;BME280;50828;53.756;21.140;2023-04-27T00:35:35;99707.11;;;1.72;61.47
64460;BME280;50828;53.756;21.140;2023-04-27T00:40:43;99711.99;;;1.71;61.28
64460;BME280;50828;53.756;21.140;2023-04-27T00:45:53;99710.77;;;1.71;61.41
64460;BME280;50828;53.756;21.140;2023-04-27T00:51:02;99715.48;;;1.68;61.39
64460;BME280;50828;53.756;21.140;2023-04-27T00:56:13;99705.86;;;1.59;61.24
64460;BME280;50828;53.756;21.140;2023-04-27T01:01:21;99720.38;;;1.65;61.27
64460;BME280;50828;53.756;21.140;2023-04-27T01:06:30;99720.40;;;1.63;61.27
64460;BME280;50828;53.756;21.140;2023-04-27T01:11:39;99724.08;;;1.60;61.46
64460;BME280;50828;53.756;21.140;2023-04-27T01:16:47;99730.01;;;1.57;61.38
64460;BME280;50828;53.756;21.140;2023-04-27T01:21:56;99731.08;;;1.54;61.18
64460;BME280;50828;53.756;21.140;2023-04-27T01:27:05;99738.73;;;1.53;61.25
64460;BME280;50828;53.756;21.140;2023-04-27T01:32:15;99737.18;;;1.50;61.27
64460;BME280;50828;53.756;21.140;2023-04-27T01:37:23;99737.90;;;1.48;61.24
64460;BME280;50828;53.756;21.140;2023-04-27T01:42:32;99739.13;;;1.47;61.16
64460;BME280;50828;53.756;21.140;2023-04-27T01:47:41;99737.38;;;1.49;61.04
64460;BME280;50828;53.756;21.140;2023-04-27T01:52:49;99737.55;;;1.49;61.12
64460;BME280;50828;53.756;21.140;2023-04-27T01:57:58;99738.08;;;1.48;61.18
64460;BME280;50828;53.756;21.140;2023-04-27T02:03:06;99739.14;;;1.45;61.18
64460;BME280;50828;53.756;21.140;2023-04-27T02:08:15;99742.46;;;1.43;61.03
64460;BME280;50828;53.756;21.140;2023-04-27T02:13:23;99742.48;;;1.41;61.21
64460;BME280;50828;53.756;21.140;2023-04-27T02:18:30;99743.89;;;1.39;61.27
64460;BME280;50828;53.756;21.140;2023-04-27T02:23:38;99741.64;;;1.37;61.30
64460;BME280;50828;53.756;21.140;2023-04-27T02:28:47;99743.73;;;1.35;61.31
64460;BME280;50828;53.756;21.140;2023-04-27T02:33:56;99746.17;;;1.35;61.59
64460;BME280;50828;53.756;21.140;2023-04-27T02:39:04;99747.39;;;1.34;61.37
64460;BME280;50828;53.756;21.140;2023-04-27T02:44:15;99752.78;;;1.34;61.52
64460;BME280;50828;53.756;21.140;2023-04-27T02:49:24;99755.55;;;1.34;61.54
64460;BME280;50828;53.756;21.140;2023-04-27T02:54:31;99760.09;;;1.32;61.67
64460;BME280;50828;53.756;21.140;2023-04-27T02:59:40;99759.58;;;1.29;61.61
64460;BME280;50828;53.756;21.140;2023-04-27T03:04:52;99763.40;;;1.27;61.54
64460;BME280;50828;53.756;21.140;2023-04-27T03:10:02;99768.81;;;1.24;61.87
64460;BME280;50828;53.756;21.140;2023-04-27T03:15:12;99771.77;;;1.23;61.89
64460;BME280;50828;53.756;21.140;2023-04-27T03:20:22;99780.27;;;1.22;61.87
64460;BME280;50828;53.756;21.140;2023-04-27T03:25:32;99786.70;;;1.21;61.99
64460;BME280;50828;53.756;21.140;2023-04-27T03:30:41;99782.89;;;1.20;62.06
64460;BME280;50828;53.756;21.140;2023-04-27T03:35:57;99784.29;;;1.20;62.19
64460;BME280;50828;53.756;21.140;2023-04-27T03:41:06;99784.09;;;1.21;62.33
64460;BME280;50828;53.756;21.140;2023-04-27T03:46:15;99783.36;;;1.28;62.40
64460;BME280;50828;53.756;21.140;2023-04-27T03:51:24;99785.55;;;1.36;62.56
64460;BME280;50828;53.756;21.140;2023-04-27T03:56:33;99793.28;;;1.46;62.61
64460;BME280;50828;53.756;21.140;2023-04-27T04:01:40;99797.20;;;1.54;62.59
64460;BME280;50828;53.756;21.140;2023-04-27T04:06:49;99806.14;;;1.64;62.49
64460;BME280;50828;53.756;21.140;2023-04-27T04:11:57;99808.32;;;1.74;62.71
64460;BME280;50828;53.756;21.140;2023-04-27T04:17:07;99817.42;;;1.85;62.81
64460;BME280;50828;53.756;21.140;2023-04-27T04:22:17;99818.70;;;1.95;62.84
64460;BME280;50828;53.756;21.140;2023-04-27T04:27:25;99823.27;;;2.07;62.69
64460;BME280;50828;53.756;21.140;2023-04-27T04:32:34;99829.41;;;2.19;62.85
64460;BME280;50828;53.756;21.140;2023-04-27T04:37:44;99834.31;;;2.32;63.05
64460;BME280;50828;53.756;21.140;2023-04-27T04:42:53;99836.56;;;2.49;63.08
64460;BME280;50828;53.756;21.140;2023-04-27T04:48:02;99833.21;;;2.67;63.25
64460;BME280;50828;53.756;21.140;2023-04-27T04:53:11;99836.07;;;2.89;63.17
64460;BME280;50828;53.756;21.140;2023-04-27T04:58:19;99836.77;;;3.13;63.16
64460;BME280;50828;53.756;21.140;2023-04-27T05:03:28;99834.48;;;3.39;63.11
64460;BME280;50828;53.756;21.140;2023-04-27T05:08:37;99837.71;;;3.66;62.94
64460;BME280;50828;53.756;21.140;2023-04-27T05:13:45;99841.23;;;3.96;63.05
64460;BME280;50828;53.756;21.140;2023-04-27T05:18:52;99843.52;;;4.23;62.87
64460;BME280;50828;53.756;21.140;2023-04-27T05:24:00;99845.48;;;4.49;62.72
64460;BME280;50828;53.756;21.140;2023-04-27T05:29:08;99844.60;;;4.75;62.77
64460;BME280;50828;53.756;21.140;2023-04-27T05:34:17;99843.32;;;5.03;62.83
64460;BME280;50828;53.756;21.140;2023-04-27T05:39:25;99849.79;;;5.34;62.78
64460;BME280;50828;53.756;21.140;2023-04-27T05:44:33;99847.45;;;5.66;62.57
64460;BME280;50828;53.756;21.140;2023-04-27T05:49:42;99849.66;;;5.98;62.44
64460;BME280;50828;53.756;21.140;2023-04-27T05:54:51;99854.10;;;6.30;62.32
64460;BME280;50828;53.756;21.140;2023-04-27T05:59:59;99856.66;;;6.58;61.86
64460;BME280;50828;53.756;21.140;2023-04-27T06:05:17;99856.55;;;6.80;61.53
64460;BME280;50828;53.756;21.140;2023-04-27T06:10:26;99860.14;;;7.01;61.44
64460;BME280;50828;53.756;21.140;2023-04-27T06:15:34;99860.66;;;7.19;61.10
64460;BME280;50828;53.756;21.140;2023-04-27T06:20:43;99855.56;;;7.37;60.75
64460;BME280;50828;53.756;21.140;2023-04-27T06:25:52;99857.13;;;7.59;60.60
64460;BME280;50828;53.756;21.140;2023-04-27T06:31:00;99855.08;;;7.80;60.17
64460;BME280;50828;53.756;21.140;2023-04-27T06:36:09;99859.00;;;7.99;60.12
64460;BME280;50828;53.756;21.140;2023-04-27T06:41:17;99864.61;;;8.19;59.96
64460;BME280;50828;53.756;21.140;2023-04-27T06:46:26;99862.04;;;8.39;59.74
64460;BME280;50828;53.756;21.140;2023-04-27T06:51:34;99861.27;;;8.61;59.60
64460;BME280;50828;53.756;21.140;2023-04-27T06:56:43;99864.23;;;8.85;59.05
64460;BME280;50828;53.756;21.140;2023-04-27T07:01:51;99864.10;;;9.03;58.42
64460;BME280;50828;53.756;21.140;2023-04-27T07:06:59;99865.81;;;9.14;58.07
64460;BME280;50828;53.756;21.140;2023-04-27T07:12:07;99868.95;;;9.24;57.16
64460;BME280;50828;53.756;21.140;2023-04-27T07:17:16;99867.81;;;9.30;56.41
64460;BME280;50828;53.756;21.140;2023-04-27T07:22:23;99871.01;;;9.39;56.30
64460;BME280;50828;53.756;21.140;2023-04-27T07:27:31;99879.03;;;9.45;54.74
64460;BME280;50828;53.756;21.140;2023-04-27T07:32:40;99882.77;;;9.44;54.54
64460;BME280;50828;53.756;21.140;2023-04-27T07:37:48;99883.49;;;9.43;54.40
64460;BME280;50828;53.756;21.140;2023-04-27T07:42:57;99884.35;;;9.39;53.49
64460;BME280;50828;53.756;21.140;2023-04-27T07:48:06;99887.48;;;9.31;53.58
64460;BME280;50828;53.756;21.140;2023-04-27T07:53:15;99884.45;;;9.27;53.77
64460;BME280;50828;53.756;21.140;2023-04-27T07:58:23;99886.71;;;9.28;52.76
64460;BME280;50828;53.756;21.140;2023-04-27T08:03:31;99878.25;;;9.15;52.64
64460;BME280;50828;53.756;21.140;2023-04-27T08:08:40;99889.11;;;9.20;52.63
64460;BME280;50828;53.756;21.140;2023-04-27T08:13:49;99885.27;;;9.24;53.20
64460;BME280;50828;53.756;21.140;2023-04-27T08:18:56;99883.83;;;9.38;52.62
64460;BME280;50828;53.756;21.140;2023-04-27T08:24:06;99888.31;;;9.50;51.09
64460;BME280;50828;53.756;21.140;2023-04-27T08:29:18;99888.41;;;9.52;50.54
64460;BME280;50828;53.756;21.140;2023-04-27T08:34:34;99885.71;;;9.49;50.04
64460;BME280;50828;53.756;21.140;2023-04-27T08:39:45;99884.59;;;9.51;50.82
64460;BME280;50828;53.756;21.140;2023-04-27T08:44:56;99885.61;;;9.51;50.44
64460;BME280;50828;53.756;21.140;2023-04-27T08:50:07;99888.18;;;9.58;49.97
64460;BME280;50828;53.756;21.140;2023-04-27T08:55:16;99894.92;;;9.61;49.40
64460;BME280;50828;53.756;21.140;2023-04-27T09:00:36;99898.33;;;9.63;49.95
64460;BME280;50828;53.756;21.140;2023-04-27T09:05:49;99897.02;;;9.65;49.94
64460;BME280;50828;53.756;21.140;2023-04-27T09:11:10;99900.75;;;9.69;49.39
64460;BME280;50828;53.756;21.140;2023-04-27T09:16:24;99900.83;;;9.67;49.85
64460;BME280;50828;53.756;21.140;2023-04-27T09:21:33;99898.23;;;9.62;49.10
64460;BME280;50828;53.756;21.140;2023-04-27T09:26:47;99896.66;;;9.57;48.28
64460;BME280;50828;53.756;21.140;2023-04-27T09:31:56;99897.05;;;9.51;48.00
64460;BME280;50828;53.756;21.140;2023-04-27T09:37:05;99899.39;;;9.45;48.10
64460;BME280;50828;53.756;21.140;2023-04-27T09:42:14;99904.89;;;9.35;47.88
64460;BME280;50828;53.756;21.140;2023-04-27T09:47:23;99905.63;;;9.25;48.24
64460;BME280;50828;53.756;21.140;2023-04-27T09:52:34;99909.81;;;9.16;49.02
64460;BME280;50828;53.756;21.140;2023-04-27T09:57:50;99913.77;;;9.09;48.98
64460;BME280;50828;53.756;21.140;2023-04-27T10:03:10;99912.90;;;9.04;49.15
64460;BME280;50828;53.756;21.140;2023-04-27T10:08:21;99913.94;;;9.05;49.47
64460;BME280;50828;53.756;21.140;2023-04-27T10:13:32;99913.79;;;9.09;49.72
64460;BME280;50828;53.756;21.140;2023-04-27T10:18:39;99918.61;;;9.11;50.51
64460;BME280;50828;53.756;21.140;2023-04-27T10:24:07;99918.96;;;9.16;50.67
64460;BME280;50828;53.756;21.140;2023-04-27T10:29:16;99916.74;;;9.23;50.96
64460;BME280;50828;53.756;21.140;2023-04-27T10:34:28;99923.89;;;9.30;50.88
64460;BME280;50828;53.756;21.140;2023-04-27T10:39:41;99927.23;;;9.34;51.08
64460;BME280;50828;53.756;21.140;2023-04-27T10:44:57;99936.29;;;9.36;50.79
64460;BME280;50828;53.756;21.140;2023-04-27T10:50:07;99932.92;;;9.37;51.05
64460;BME280;50828;53.756;21.140;2023-04-27T10:55:21;99928.23;;;9.40;51.07
64460;BME280;50828;53.756;21.140;2023-04-27T11:00:32;99921.64;;;9.47;51.12
64460;BME280;50828;53.756;21.140;2023-04-27T11:05:41;99923.08;;;9.55;50.12
64460;BME280;50828;53.756;21.140;2023-04-27T11:10:51;99928.41;;;9.59;49.29
64460;BME280;50828;53.756;21.140;2023-04-27T11:15:59;99932.28;;;9.59;49.02
64460;BME280;50828;53.756;21.140;2023-04-27T11:21:11;99944.55;;;9.55;48.25
64460;BME280;50828;53.756;21.140;2023-04-27T11:26:21;99953.11;;;9.47;48.47
64460;BME280;50828;53.756;21.140;2023-04-27T11:31:40;99948.13;;;9.35;48.97
64460;BME280;50828;53.756;21.140;2023-04-27T11:37:02;99951.29;;;9.26;49.62
64460;BME280;50828;53.756;21.140;2023-04-27T11:42:21;99950.85;;;9.18;50.09
64460;BME280;50828;53.756;21.140;2023-04-27T11:47:30;99946.89;;;9.16;50.17
64460;BME280;50828;53.756;21.140;2023-04-27T11:52:40;99942.27;;;9.18;50.13
64460;BME280;50828;53.756;21.140;2023-04-27T11:57:48;99946.48;;;9.22;50.01
64460;BME280;50828;53.756;21.140;2023-04-27T12:02:56;99942.41;;;9.28;49.75
64460;BME280;50828;53.756;21.140;2023-04-27T12:08:05;99933.98;;;9.37;48.81
64460;BME280;50828;53.756;21.140;2023-04-27T12:13:14;99937.04;;;9.45;48.29
64460;BME280;50828;53.756;21.140;2023-04-27T12:18:22;99934.92;;;9.45;47.78
64460;BME280;50828;53.756;21.140;2023-04-27T12:23:30;99939.05;;;9.52;48.22
64460;BME280;50828;53.756;21.140;2023-04-27T12:28:38;99937.44;;;9.62;48.47
64460;BME280;50828;53.756;21.140;2023-04-27T12:33:46;99935.90;;;9.74;49.00
64460;BME280;50828;53.756;21.140;2023-04-27T12:38:56;99939.69;;;9.89;49.12
64460;BME280;50828;53.756;21.140;2023-04-27T12:44:05;99946.08;;;10.01;48.81
64460;BME280;50828;53.756;21.140;2023-04-27T12:49:13;99946.45;;;10.05;47.46
64460;BME280;50828;53.756;21.140;2023-04-27T12:54:21;99953.19;;;10.04;47.14
64460;BME280;50828;53.756;21.140;2023-04-27T12:59:28;99963.31;;;10.01;46.88
64460;BME280;50828;53.756;21.140;2023-04-27T13:04:36;99972.20;;;9.94;46.93
64460;BME280;50828;53.756;21.140;2023-04-27T13:09:45;99983.19;;;9.83;47.23
64460;BME280;50828;53.756;21.140;2023-04-27T13:14:53;99991.94;;;9.71;47.48
64460;BME280;50828;53.756;21.140;2023-04-27T13:20:01;99989.00;;;9.56;47.44
64460;BME280;50828;53.756;21.140;2023-04-27T13:25:09;99986.78;;;9.45;47.75
64460;BME280;50828;53.756;21.140;2023-04-27T13:30:17;99988.23;;;9.39;48.37
64460;BME280;50828;53.756;21.140;2023-04-27T13:35:24;99984.48;;;9.45;49.15
64460;BME280;50828;53.756;21.140;2023-04-27T13:40:32;99987.94;;;9.56;49.89
64460;BME280;50828;53.756;21.140;2023-04-27T13:45:40;99993.00;;;9.66;49.94
64460;BME280;50828;53.756;21.140;2023-04-27T13:50:50;99991.92;;;9.76;50.01
64460;BME280;50828;53.756;21.140;2023-04-27T13:55:58;99991.34;;;9.82;50.29
64460;BME280;50828;53.756;21.140;2023-04-27T14:01:05;99999.06;;;9.87;49.77
64460;BME280;50828;53.756;21.140;2023-04-27T14:06:14;100003.89;;;9.85;49.41
64460;BME280;50828;53.756;21.140;2023-04-27T14:11:22;100004.21;;;9.77;49.51
64460;BME280;50828;53.756;21.140;2023-04-27T14:16:29;100011.91;;;9.73;49.24
64460;BME280;50828;53.756;21.140;2023-04-27T14:21:37;100013.21;;;9.66;49.64
64460;BME280;50828;53.756;21.140;2023-04-27T14:26:45;100015.98;;;9.63;49.55
64460;BME280;50828;53.756;21.140;2023-04-27T14:31:53;100010.96;;;9.61;49.55
64460;BME280;50828;53.756;21.140;2023-04-27T14:37:01;100008.02;;;9.64;50.00
64460;BME280;50828;53.756;21.140;2023-04-27T14:42:08;100011.55;;;9.73;50.19
64460;BME280;50828;53.756;21.140;2023-04-27T14:47:16;100015.22;;;9.79;49.92
64460;BME280;50828;53.756;21.140;2023-04-27T14:52:24;100031.73;;;9.79;49.62
64460;BME280;50828;53.756;21.140;2023-04-27T14:57:32;100046.63;;;9.76;49.41
64460;BME280;50828;53.756;21.140;2023-04-27T15:02:40;100054.86;;;9.67;49.67
64460;BME280;50828;53.756;21.140;2023-04-27T15:07:48;100073.69;;;9.57;50.15
64460;BME280;50828;53.756;21.140;2023-04-27T15:12:56;100083.34;;;9.43;50.51
64460;BME280;50828;53.756;21.140;2023-04-27T15:18:03;100089.16;;;9.27;50.82
64460;BME280;50828;53.756;21.140;2023-04-27T15:23:12;100078.80;;;9.12;51.44
64460;BME280;50828;53.756;21.140;2023-04-27T15:28:19;100073.56;;;8.96;51.66
64460;BME280;50828;53.756;21.140;2023-04-27T15:33:27;100070.48;;;8.83;52.21
64460;BME280;50828;53.756;21.140;2023-04-27T15:38:35;100073.02;;;8.75;52.53
64460;BME280;50828;53.756;21.140;2023-04-27T15:43:43;100077.05;;;8.70;52.86
64460;BME280;50828;53.756;21.140;2023-04-27T15:48:50;100078.77;;;8.66;53.13
64460;BME280;50828;53.756;21.140;2023-04-27T15:53:57;100078.82;;;8.64;53.38
64460;BME280;50828;53.756;21.140;2023-04-27T15:59:05;100080.77;;;8.70;53.71
64460;BME280;50828;53.756;21.140;2023-04-27T16:04:13;100089.96;;;8.73;53.34
64460;BME280;50828;53.756;21.140;2023-04-27T16:09:21;100092.29;;;8.72;53.58
64460;BME280;50828;53.756;21.140;2023-04-27T16:14:29;100087.12;;;8.69;53.55
64460;BME280;50828;53.756;21.140;2023-04-27T16:19:36;100087.76;;;8.65;53.71
64460;BME280;50828;53.756;21.140;2023-04-27T16:24:44;100091.93;;;8.60;53.56
64460;BME280;50828;53.756;21.140;2023-04-27T16:29:51;100090.72;;;8.55;53.65
64460;BME280;50828;53.756;21.140;2023-04-27T16:34:59;100092.48;;;8.49;53.42
64460;BME280;50828;53.756;21.140;2023-04-27T16:40:08;100095.77;;;8.45;53.33
64460;BME280;50828;53.756;21.140;2023-04-27T16:45:16;100100.97;;;8.41;53.31
64460;BME280;50828;53.756;21.140;2023-04-27T16:50:24;100101.94;;;8.38;53.36
64460;BME280;50828;53.756;21.140;2023-04-27T16:55:32;100100.83;;;8.39;53.31
64460;BME280;50828;53.756;21.140;2023-04-27T17:00:40;100105.35;;;8.41;53.45
64460;BME280;50828;53.756;21.140;2023-04-27T17:05:48;100111.45;;;8.42;53.05
64460;BME280;50828;53.756;21.140;2023-04-27T17:10:56;100115.73;;;8.40;53.18
64460;BME280;50828;53.756;21.140;2023-04-27T17:16:04;100120.35;;;8.38;53.21
64460;BME280;50828;53.756;21.140;2023-04-27T17:21:16;100117.16;;;8.34;53.06
64460;BME280;50828;53.756;21.140;2023-04-27T17:26:24;100111.28;;;8.31;52.95
64460;BME280;50828;53.756;21.140;2023-04-27T17:31:31;100114.83;;;8.28;53.37
64460;BME280;50828;53.756;21.140;2023-04-27T17:36:39;100115.99;;;8.25;53.35
64460;BME280;50828;53.756;21.140;2023-04-27T17:41:47;100123.80;;;8.22;53.41
64460;BME280;50828;53.756;21.140;2023-04-27T17:46:55;100129.71;;;8.18;53.51
64460;BME280;50828;53.756;21.140;2023-04-27T17:52:03;100129.34;;;8.14;53.76
64460;BME280;50828;53.756;21.140;2023-04-27T17:57:10;100134.84;;;8.05;54.16
64460;BME280;50828;53.756;21.140;2023-04-27T18:02:18;100133.66;;;7.92;54.03
64460;BME280;50828;53.756;21.140;2023-04-27T18:07:26;100141.52;;;7.81;54.02
64460;BME280;50828;53.756;21.140;2023-04-27T18:12:34;100143.63;;;7.68;53.42
64460;BME280;50828;53.756;21.140;2023-04-27T18:17:43;100151.39;;;7.53;53.27
64460;BME280;50828;53.756;21.140;2023-04-27T18:22:50;100152.70;;;7.37;53.46
64460;BME280;50828;53.756;21.140;2023-04-27T18:27:58;100154.70;;;7.20;53.86
64460;BME280;50828;53.756;21.140;2023-04-27T18:33:07;100184.42;;;7.02;54.26
64460;BME280;50828;53.756;21.140;2023-04-27T18:38:14;100215.60;;;6.86;54.62
64460;BME280;50828;53.756;21.140;2023-04-27T18:43:22;100222.15;;;6.67;55.08
64460;BME280;50828;53.756;21.140;2023-04-27T18:48:30;100222.80;;;6.53;55.23
64460;BME280;50828;53.756;21.140;2023-04-27T18:53:37;100223.17;;;6.36;55.54
64460;BME280;50828;53.756;21.140;2023-04-27T18:58:45;100216.83;;;6.21;55.76
64460;BME280;50828;53.756;21.140;2023-04-27T19:03:53;100212.91;;;6.08;56.02
64460;BME280;50828;53.756;21.140;2023-04-27T19:09:02;100210.59;;;5.92;56.40
64460;BME280;50828;53.756;21.140;2023-04-27T19:14:10;100208.44;;;5.76;56.76
64460;BME280;50828;53.756;21.140;2023-04-27T19:19:18;100204.58;;;5.58;56.76
64460;BME280;50828;53.756;21.140;2023-04-27T19:24:25;100203.30;;;5.41;56.81
64460;BME280;50828;53.756;21.140;2023-04-27T19:29:49;100202.58;;;5.22;57.10
64460;BME280;50828;53.756;21.140;2023-04-27T19:34:57;100198.50;;;5.04;57.46
64460;BME280;50828;53.756;21.140;2023-04-27T19:40:06;100198.40;;;4.88;57.47
64460;BME280;50828;53.756;21.140;2023-04-27T19:45:14;100193.07;;;4.72;57.73
64460;BME280;50828;53.756;21.140;2023-04-27T19:50:23;100193.09;;;4.59;57.37
64460;BME280;50828;53.756;21.140;2023-04-27T19:55:31;100188.60;;;4.42;57.29
64460;BME280;50828;53.756;21.140;2023-04-27T20:00:38;100190.36;;;4.29;57.42
64460;BME280;50828;53.756;21.140;2023-04-27T20:05:46;100190.88;;;4.15;57.60
64460;BME280;50828;53.756;21.140;2023-04-27T20:10:54;100192.27;;;4.01;57.68
64460;BME280;50828;53.756;21.140;2023-04-27T20:16:02;100192.94;;;3.88;57.96
64460;BME280;50828;53.756;21.140;2023-04-27T20:21:11;100196.73;;;3.76;58.11
64460;BME280;50828;53.756;21.140;2023-04-27T20:26:19;100201.05;;;3.65;58.38
64460;BME280;50828;53.756;21.140;2023-04-27T20:31:27;100204.29;;;3.54;58.79
64460;BME280;50828;53.756;21.140;2023-04-27T20:36:34;100204.21;;;3.43;58.76
64460;BME280;50828;53.756;21.140;2023-04-27T20:41:42;100210.05;;;3.34;58.98
64460;BME280;50828;53.756;21.140;2023-04-27T20:46:50;100214.30;;;3.25;59.35
64460;BME280;50828;53.756;21.140;2023-04-27T20:51:57;100219.92;;;3.18;59.58
64460;BME280;50828;53.756;21.140;2023-04-27T20:57:05;100219.11;;;3.11;59.89
64460;BME280;50828;53.756;21.140;2023-04-27T21:02:18;100219.88;;;3.04;60.10
64460;BME280;50828;53.756;21.140;2023-04-27T21:07:26;100219.23;;;2.98;60.17
64460;BME280;50828;53.756;21.140;2023-04-27T21:12:34;100222.21;;;2.92;60.49
64460;BME280;50828;53.756;21.140;2023-04-27T21:17:41;100224.69;;;2.87;60.58
64460;BME280;50828;53.756;21.140;2023-04-27T21:22:49;100218.98;;;2.82;60.87
64460;BME280;50828;53.756;21.140;2023-04-27T21:27:57;100219.71;;;2.78;61.05
64460;BME280;50828;53.756;21.140;2023-04-27T21:33:04;100221.83;;;2.73;61.21
64460;BME280;50828;53.756;21.140;2023-04-27T21:38:12;100220.81;;;2.69;61.12
64460;BME280;50828;53.756;21.140;2023-04-27T21:43:20;100221.37;;;2.63;61.37
64460;BME280;50828;53.756;21.140;2023-04-27T21:48:27;100215.49;;;2.57;61.26
64460;BME280;50828;53.756;21.140;2023-04-27T21:53:35;100221.08;;;2.51;61.04
64460;BME280;50828;53.756;21.140;2023-04-27T21:58:42;100225.29;;;2.44;60.96
64460;BME280;50828;53.756;21.140;2023-04-27T22:03:50;100224.98;;;2.38;61.34
64460;BME280;50828;53.756;21.140;2023-04-27T22:08:58;100230.23;;;2.31;61.43
64460;BME280;50828;53.756;21.140;2023-04-27T22:14:05;100232.86;;;2.24;61.17
64460;BME280;50828;53.756;21.140;2023-04-27T22:19:13;100231.34;;;2.16;61.38
64460;BME280;50828;53.756;21.140;2023-04-27T22:24:22;100236.77;;;2.08;61.39
64460;BME280;50828;53.756;21.140;2023-04-27T22:29:30;100237.64;;;2.01;61.57
64460;BME280;50828;53.756;21.140;2023-04-27T22:34:38;100236.63;;;1.95;61.36
64460;BME280;50828;53.756;21.140;2023-04-27T22:39:45;100238.72;;;1.89;61.49
64460;BME280;50828;53.756;21.140;2023-04-27T22:44:53;100231.79;;;1.82;61.54
64460;BME280;50828;53.756;21.140;2023-04-27T22:50:00;100233.89;;;1.75;61.74
64460;BME280;50828;53.756;21.140;2023-04-27T22:55:09;100236.34;;;1.69;61.57
64460;BME280;50828;53.756;21.140;2023-04-27T23:00:18;100239.46;;;1.62;61.84
64460;BME280;50828;53.756;21.140;2023-04-27T23:05:25;100240.00;;;1.55;61.88
64460;BME280;50828;53.756;21.140;2023-04-27T23:10:34;100242.27;;;1.50;62.09
64460;BME280;50828;53.756;21.140;2023-04-27T23:15:43;100243.48;;;1.44;61.84
64460;BME280;50828;53.756;21.140;2023-04-27T23:20:54;100247.30;;;1.40;61.81
64460;BME280;50828;53.756;21.140;2023-04-27T23:26:02;100243.85;;;1.33;61.59
64460;BME280;50828;53.756;21.140;2023-04-27T23:31:09;100246.80;;;1.28;61.33
64460;BME280;50828;53.756;21.140;2023-04-27T23:36:17;100242.98;;;1.21;61.03
64460;BME280;50828;53.756;21.140;2023-04-27T23:41:24;100247.14;;;1.14;61.04
64460;BME280;50828;53.756;21.140;2023-04-27T23:46:31;100246.10;;;1.08;61.49
64460;BME280;50828;53.756;21.140;2023-04-27T23:51:39;100249.73;;;1.03;61.30
64460;BME280;50828;53.756;21.140;2023-04-27T23:56:46;100247.98;;;0.99;61.41
